Time;durP1;ratioP1;P1;durP2;ratioP2;P2;SDS_P1;SDS_P2;PMS_P1;PMS_P2;Temp;Humidity;BMP_temperature;BMP_pressure;BME280_temperature;BME280_humidity;BME280_pressure;Samples;Min_cycle;Max_cycle;Signal;HPM_P1;HPM_P2
2023/07/24 00:06:20;;;;;;;;;;;17.90;99.90;;;;;;20896432;28;19936;-77
2023/07/24 00:16:21;;;;;;;;;;;17.70;99.90;;;;;;20922632;22;19924;-81
2023/07/24 00:26:22;;;;;;;;;;;18.40;99.90;;;;;;20821831;28;19932;-79
2023/07/24 00:36:22;;;;;;;;;;;17.50;99.90;;;;;;20761489;28;19945;-81
2023/07/24 00:46:23;;;;;;;;;;;17.10;99.90;;;;;;20759020;28;20258;-80
2023/07/24 00:56:24;;;;;;;;;;;17.40;99.90;;;;;;20811316;28;19946;-81
2023/07/24 01:06:25;;;;;;;;;;;17.40;99.90;;;;;;20822326;28;19917;-80
2023/07/24 01:16:29;;;;;;;;;;;17.20;99.90;;;;;;20812106;28;19939;-78
2023/07/24 01:26:30;;;;;;;;;;;17.20;99.90;;;;;;20803879;28;19917;-80
2023/07/24 01:36:30;;;;;;;;;;;17.10;99.90;;;;;;20840090;28;19917;-80
2023/07/24 01:46:31;;;;;;;;;;;17.00;99.90;;;;;;20815417;28;19964;-78
2023/07/24 01:56:33;;;;;;;;;;;16.70;99.90;;;;;;20810470;28;19913;-81
2023/07/24 02:06:34;;;;;;;;;;;16.70;99.90;;;;;;20835189;28;19986;-79
2023/07/24 02:16:35;;;;;;;;;;;16.60;99.90;;;;;;20839698;28;19948;-78
2023/07/24 02:26:36;;;;;;;;;;;16.40;99.90;;;;;;20844092;28;19917;-81
2023/07/24 02:36:37;;;;;;;;;;;16.50;99.90;;;;;;20854780;28;19998;-78
2023/07/24 02:46:38;;;;;;;;;;;16.70;99.90;;;;;;20827110;28;19964;-79
2023/07/24 02:56:39;;;;;;;;;;;16.60;99.90;;;;;;20834331;28;19917;-82
2023/07/24 03:06:40;;;;;;;;;;;16.50;99.90;;;;;;20838893;28;19917;-80
2023/07/24 03:16:41;;;;;;;;;;;16.50;99.90;;;;;;20834712;28;20428;-80
2023/07/24 03:26:42;;;;;;;;;;;16.30;99.90;;;;;;20833108;28;19917;-80
2023/07/24 03:36:42;;;;;;;;;;;16.10;99.90;;;;;;20840732;28;19913;-80
2023/07/24 03:46:43;;;;;;;;;;;16.30;99.90;;;;;;20844670;28;19917;-79
2023/07/24 03:56:44;;;;;;;;;;;16.30;99.90;;;;;;20837961;28;19921;-80
2023/07/24 04:06:45;;;;;;;;;;;16.40;99.90;;;;;;20836625;28;19917;-79
2023/07/24 04:16:46;;;;;;;;;;;16.50;99.90;;;;;;20815659;28;19924;-80
2023/07/24 04:26:46;;;;;;;;;;;16.70;99.90;;;;;;20819813;28;20012;-80
2023/07/24 04:36:47;;;;;;;;;;;16.40;99.90;;;;;;20834673;28;20393;-81
2023/07/24 04:46:48;;;;;;;;;;;17.20;99.90;;;;;;20817572;28;19917;-81
2023/07/24 04:56:48;;;;;;;;;;;17.50;99.90;;;;;;20778186;28;19914;-83
2023/07/24 05:06:49;;;;;;;;;;;17.70;99.90;;;;;;20822631;28;20020;-83
2023/07/24 05:16:50;;;;;;;;;;;17.70;99.90;;;;;;20822506;28;19971;-82
2023/07/24 05:26:51;;;;;;;;;;;17.40;99.90;;;;;;20797654;28;19917;-81
2023/07/24 05:36:51;;;;;;;;;;;17.40;99.90;;;;;;20793492;28;19919;-80
2023/07/24 05:46:52;;;;;;;;;;;17.40;99.90;;;;;;20768012;28;20440;-82
2023/07/24 05:56:53;;;;;;;;;;;17.40;99.90;;;;;;20794033;28;20023;-80
2023/07/24 06:06:53;;;;;;;;;;;17.40;99.90;;;;;;20808568;28;20012;-82
2023/07/24 06:16:54;;;;;;;;;;;17.40;99.90;;;;;;20933849;22;20023;-77
2023/07/24 06:26:54;;;;;;;;;;;18.00;99.90;;;;;;20984922;28;19927;-76
2023/07/24 06:36:55;;;;;;;;;;;18.70;99.90;;;;;;21003006;28;19912;-76
2023/07/24 06:46:56;;;;;;;;;;;19.10;99.90;;;;;;21000457;28;19916;-76
2023/07/24 06:56:56;;;;;;;;;;;19.10;99.90;;;;;;21001263;28;19912;-75
2023/07/24 07:06:57;;;;;;;;;;;19.30;99.90;;;;;;21000541;28;20298;-75
2023/07/24 07:16:58;;;;;;;;;;;19.70;99.90;;;;;;20999192;28;19916;-75
2023/07/24 07:26:58;;;;;;;;;;;19.90;99.90;;;;;;20998521;28;19949;-76
2023/07/24 07:36:59;;;;;;;;;;;19.50;99.90;;;;;;20988567;28;20370;-75
2023/07/24 07:46:59;;;;;;;;;;;19.50;99.90;;;;;;20974301;28;20012;-76
2023/07/24 07:57:00;;;;;;;;;;;19.20;99.90;;;;;;20996565;28;19951;-76
2023/07/24 08:07:01;;;;;;;;;;;19.40;99.90;;;;;;20996723;28;19959;-76
2023/07/24 08:17:02;;;;;;;;;;;20.00;99.90;;;;;;20998068;28;20433;-76
2023/07/24 08:27:02;;;;;;;;;;;20.10;99.90;;;;;;20970827;28;19917;-76
2023/07/24 08:37:03;;;;;;;;;;;21.20;99.90;;;;;;20994046;28;20341;-76
2023/07/24 08:47:05;;;;;;;;;;;22.00;99.90;;;;;;20982832;28;19916;-75
2023/07/24 08:57:07;;;;;;;;;;;22.70;99.90;;;;;;20978584;28;19959;-74
2023/07/24 09:07:08;;;;;;;;;;;22.40;99.90;;;;;;20998159;28;19916;-75
2023/07/24 09:17:09;;;;;;;;;;;22.10;99.90;;;;;;20991059;28;19958;-75
2023/07/24 09:27:12;;;;;;;;;;;22.60;99.90;;;;;;20990711;28;19939;-75
2023/07/24 09:37:22;;;;;;;;;;;23.70;99.90;;;;;;20999407;28;19966;-76
2023/07/24 09:47:23;;;;;;;;;;;23.30;99.90;;;;;;21005750;28;19942;-75
2023/07/24 09:57:23;;;;;;;;;;;22.60;99.90;;;;;;20991612;28;19948;-75
2023/07/24 10:07:24;;;;;;;;;;;21.50;99.90;;;;;;20989400;28;19923;-75
2023/07/24 10:17:35;;;;;;;;;;;21.00;99.90;;;;;;20989807;28;19949;-75
2023/07/24 10:27:39;;;;;;;;;;;20.90;99.90;;;;;;20992879;28;19917;-78
2023/07/24 10:37:40;;;;;;;;;;;20.30;99.90;;;;;;21000517;28;19919;-79
2023/07/24 10:47:40;;;;;;;;;;;20.40;99.90;;;;;;21001398;28;20098;-79
2023/07/24 10:57:41;;;;;;;;;;;19.80;99.90;;;;;;20992608;28;19928;-78
2023/07/24 11:07:42;;;;;;;;;;;19.10;99.90;;;;;;20990844;28;20275;-78
2023/07/24 11:17:42;;;;;;;;;;;19.90;99.90;;;;;;20988008;28;19923;-77
2023/07/24 11:27:43;;;;;;;;;;;20.20;99.90;;;;;;21003402;28;19917;-76
2023/07/24 11:37:44;;;;;;;;;;;20.40;99.90;;;;;;21008734;28;19912;-79
2023/07/24 11:47:46;;;;;;;;;;;20.70;99.90;;;;;;21010629;28;19970;-78
2023/07/24 11:58:00;;;;;;;;;;;20.30;99.90;;;;;;20998949;28;20011;-79
2023/07/24 12:08:00;;;;;;;;;;;20.60;99.90;;;;;;21000419;28;20015;-77
2023/07/24 12:18:02;;;;;;;;;;;21.10;99.90;;;;;;20949640;22;20452;-74
2023/07/24 12:28:02;;;;;;;;;;;21.40;99.90;;;;;;20908997;28;20024;-74
2023/07/24 12:38:03;;;;;;;;;;;21.40;99.90;;;;;;20955378;28;20343;-74
2023/07/24 12:48:04;;;;;;;;;;;22.10;99.90;;;;;;20992900;28;20375;-74
2023/07/24 12:58:04;;;;;;;;;;;22.70;99.90;;;;;;20924927;28;19976;-75
2023/07/24 13:08:05;;;;;;;;;;;22.60;99.90;;;;;;20908124;28;19917;-74
2023/07/24 13:18:06;;;;;;;;;;;22.00;99.90;;;;;;20899375;28;19917;-73
2023/07/24 13:28:08;;;;;;;;;;;21.50;99.90;;;;;;20919856;28;21599;-75
2023/07/24 13:38:09;;;;;;;;;;;20.70;99.90;;;;;;20848048;28;20379;-75
2023/07/24 13:48:09;;;;;;;;;;;20.00;99.90;;;;;;20822737;28;19917;-73
2023/07/24 13:58:10;;;;;;;;;;;19.60;99.90;;;;;;20890743;28;19955;-74
2023/07/24 14:08:11;;;;;;;;;;;19.60;99.90;;;;;;20905809;28;19924;-73
2023/07/24 14:18:12;;;;;;;;;;;19.70;99.90;;;;;;20856210;28;19925;-73
2023/07/24 14:28:13;;;;;;;;;;;19.40;99.90;;;;;;20912111;28;20347;-73
2023/07/24 14:38:13;;;;;;;;;;;18.60;99.90;;;;;;20916616;28;19924;-73
2023/07/24 14:48:16;;;;;;;;;;;18.10;99.90;;;;;;20927470;28;19939;-73
2023/07/24 14:58:17;;;;;;;;;;;18.00;99.90;;;;;;20948059;28;19920;-73
2023/07/24 15:08:17;;;;;;;;;;;18.10;99.90;;;;;;20939371;28;19917;-72
2023/07/24 15:18:18;;;;;;;;;;;19.60;99.90;;;;;;20923663;28;19916;-73
2023/07/24 15:28:19;;;;;;;;;;;20.00;99.90;;;;;;20953762;28;19920;-73
2023/07/24 15:38:19;;;;;;;;;;;19.90;99.90;;;;;;20963658;28;19948;-73
2023/07/24 15:48:20;;;;;;;;;;;20.50;99.90;;;;;;20905976;28;19917;-74
2023/07/24 15:58:21;;;;;;;;;;;20.00;99.90;;;;;;20913651;28;19912;-74
2023/07/24 16:08:21;;;;;;;;;;;19.70;99.90;;;;;;20889622;28;20350;-74
2023/07/24 16:18:23;;;;;;;;;;;19.60;99.90;;;;;;20870121;28;19917;-74
2023/07/24 16:28:23;;;;;;;;;;;19.50;99.90;;;;;;20899563;28;19916;-75
2023/07/24 16:38:24;;;;;;;;;;;19.70;99.90;;;;;;20920155;28;19913;-74
2023/07/24 16:48:25;;;;;;;;;;;20.20;99.90;;;;;;20960793;28;20007;-73
2023/07/24 16:58:25;;;;;;;;;;;20.20;99.90;;;;;;20903657;28;19921;-74
2023/07/24 17:08:26;;;;;;;;;;;20.10;99.90;;;;;;20875267;28;19946;-74
2023/07/24 17:18:26;;;;;;;;;;;20.10;99.90;;;;;;20880338;28;19917;-74
2023/07/24 17:28:27;;;;;;;;;;;19.80;99.90;;;;;;20879645;28;19960;-74
2023/07/24 17:38:30;;;;;;;;;;;19.80;99.90;;;;;;20908767;28;19913;-74
2023/07/24 17:48:30;;;;;;;;;;;19.80;99.90;;;;;;20876167;28;20090;-74
2023/07/24 17:58:31;;;;;;;;;;;19.60;99.90;;;;;;20891385;28;20005;-75
2023/07/24 18:08:32;;;;;;;;;;;19.60;99.90;;;;;;20909896;28;20146;-75
2023/07/24 18:18:32;;;;;;;;;;;19.60;99.90;;;;;;20838456;22;19926;-76
2023/07/24 18:28:33;;;;;;;;;;;19.60;99.90;;;;;;20824724;28;19949;-77
2023/07/24 18:38:35;;;;;;;;;;;19.60;99.90;;;;;;20830316;28;19948;-77
2023/07/24 18:48:36;;;;;;;;;;;19.60;99.90;;;;;;20844979;28;19924;-78
2023/07/24 18:58:36;;;;;;;;;;;19.50;99.90;;;;;;20837766;28;19913;-79
2023/07/24 19:08:37;;;;;;;;;;;19.20;99.90;;;;;;20841048;28;19917;-78
2023/07/24 19:18:39;;;;;;;;;;;18.10;99.90;;;;;;20849841;28;19971;-79
2023/07/24 19:28:40;;;;;;;;;;;18.10;99.90;;;;;;20850111;28;20012;-79
2023/07/24 19:38:41;;;;;;;;;;;18.30;99.90;;;;;;20859030;28;20358;-78
2023/07/24 19:48:41;;;;;;;;;;;17.70;99.90;;;;;;20834613;28;19978;-77
2023/07/24 19:58:42;;;;;;;;;;;17.40;99.90;;;;;;20836891;28;19964;-79
2023/07/24 20:08:43;;;;;;;;;;;17.40;99.90;;;;;;20820345;28;19923;-78
2023/07/24 20:18:43;;;;;;;;;;;17.30;99.90;;;;;;20842290;28;19917;-78
2023/07/24 20:28:44;;;;;;;;;;;17.20;99.90;;;;;;20833928;28;19925;-78
2023/07/24 20:38:45;;;;;;;;;;;17.30;99.90;;;;;;20845929;28;20375;-79
2023/07/24 20:48:45;;;;;;;;;;;17.40;99.90;;;;;;20841384;28;19928;-80
2023/07/24 20:58:46;;;;;;;;;;;17.10;99.90;;;;;;20840546;28;20371;-80
2023/07/24 21:08:47;;;;;;;;;;;17.30;99.90;;;;;;20821305;28;19917;-80
2023/07/24 21:18:47;;;;;;;;;;;17.20;99.90;;;;;;20841401;28;19924;-81
2023/07/24 21:28:48;;;;;;;;;;;17.40;99.90;;;;;;20842183;28;19917;-82
2023/07/24 21:38:48;;;;;;;;;;;17.40;99.90;;;;;;20841298;28;19977;-82
2023/07/24 21:48:49;;;;;;;;;;;17.40;99.90;;;;;;20829574;28;19922;-81
2023/07/24 21:58:50;;;;;;;;;;;17.10;99.90;;;;;;20825622;28;19932;-81
2023/07/24 22:08:50;;;;;;;;;;;17.00;99.90;;;;;;20826043;28;19921;-80
2023/07/24 22:18:51;;;;;;;;;;;17.10;99.90;;;;;;20834613;28;20268;-81
2023/07/24 22:28:51;;;;;;;;;;;17.20;99.90;;;;;;20842459;28;19921;-82
2023/07/24 22:38:53;;;;;;;;;;;17.30;99.90;;;;;;20867151;28;19966;-82
2023/07/24 22:48:54;;;;;;;;;;;17.30;99.90;;;;;;20854906;28;19917;-81
2023/07/24 22:59:03;;;;;;;;;;;17.20;99.90;;;;;;20851769;28;20268;-81
2023/07/24 23:09:04;;;;;;;;;;;17.10;99.90;;;;;;20854691;28;19923;-82
2023/07/24 23:19:05;;;;;;;;;;;17.20;99.90;;;;;;20849657;28;20376;-82
2023/07/24 23:29:05;;;;;;;;;;;17.30;99.90;;;;;;20854547;28;19921;-80
2023/07/24 23:39:06;;;;;;;;;;;17.20;99.90;;;;;;20836912;28;20268;-81
2023/07/24 23:49:07;;;;;;;;;;;17.30;99.90;;;;;;20852737;28;19917;-81
2023/07/24 23:59:07;;;;;;;;;;;17.10;99.90;;;;;;20852223;28;19913;-81
